sensor_id;sensor_type;location;lat;lon;timestamp;P1;durP1;ratioP1;P2;durP2;ratioP2
29344;SDS011;16339;48.748;2.222;2023-04-24T00:01:01;13.98;;;3.30;;
29344;SDS011;16339;48.748;2.222;2023-04-24T00:03:32;7.45;;;2.97;;
29344;SDS011;16339;48.748;2.222;2023-04-24T00:06:01;12.07;;;4.18;;
29344;SDS011;16339;48.748;2.222;2023-04-24T00:08:31;8.38;;;3.03;;
29344;SDS011;16339;48.748;2.222;2023-04-24T00:11:03;11.05;;;3.40;;
29344;SDS011;16339;48.748;2.222;2023-04-24T00:13:32;8.75;;;2.88;;
29344;SDS011;16339;48.748;2.222;2023-04-24T00:16:01;9.02;;;2.83;;
29344;SDS011;16339;48.748;2.222;2023-04-24T00:18:30;11.65;;;3.05;;
29344;SDS011;16339;48.748;2.222;2023-04-24T00:20:59;14.90;;;3.63;;
29344;SDS011;16339;48.748;2.222;2023-04-24T00:23:28;9.32;;;2.85;;
29344;SDS011;16339;48.748;2.222;2023-04-24T00:25:56;12.23;;;3.00;;
29344;SDS011;16339;48.748;2.222;2023-04-24T00:28:27;12.57;;;2.65;;
29344;SDS011;16339;48.748;2.222;2023-04-24T00:30:56;22.45;;;4.60;;
29344;SDS011;16339;48.748;2.222;2023-04-24T00:33:25;14.15;;;2.70;;
29344;SDS011;16339;48.748;2.222;2023-04-24T00:35:53;10.25;;;2.85;;
29344;SDS011;16339;48.748;2.222;2023-04-24T00:38:22;12.55;;;3.00;;
29344;SDS011;16339;48.748;2.222;2023-04-24T00:40:51;9.68;;;3.22;;
29344;SDS011;16339;48.748;2.222;2023-04-24T00:43:20;11.77;;;3.17;;
29344;SDS011;16339;48.748;2.222;2023-04-24T00:45:51;17.73;;;3.40;;
29344;SDS011;16339;48.748;2.222;2023-04-24T00:48:20;14.65;;;3.20;;
29344;SDS011;16339;48.748;2.222;2023-04-24T00:50:49;12.02;;;3.20;;
29344;SDS011;16339;48.748;2.222;2023-04-24T00:53:18;12.10;;;3.25;;
29344;SDS011;16339;48.748;2.222;2023-04-24T00:55:46;14.77;;;3.28;;
29344;SDS011;16339;48.748;2.222;2023-04-24T00:58:15;12.52;;;3.45;;
29344;SDS011;16339;48.748;2.222;2023-04-24T01:00:44;9.88;;;3.05;;
29344;SDS011;16339;48.748;2.222;2023-04-24T01:03:16;19.33;;;3.03;;
29344;SDS011;16339;48.748;2.222;2023-04-24T01:05:46;15.25;;;3.78;;
29344;SDS011;16339;48.748;2.222;2023-04-24T01:08:15;16.42;;;3.50;;
29344;SDS011;16339;48.748;2.222;2023-04-24T01:10:44;10.82;;;3.05;;
29344;SDS011;16339;48.748;2.222;2023-04-24T01:13:14;11.93;;;3.50;;
29344;SDS011;16339;48.748;2.222;2023-04-24T01:15:43;6.93;;;3.03;;
29344;SDS011;16339;48.748;2.222;2023-04-24T01:18:12;12.45;;;3.30;;
29344;SDS011;16339;48.748;2.222;2023-04-24T01:20:43;12.25;;;3.47;;
29344;SDS011;16339;48.748;2.222;2023-04-24T01:23:16;7.10;;;2.92;;
29344;SDS011;16339;48.748;2.222;2023-04-24T01:25:45;16.67;;;3.20;;
29344;SDS011;16339;48.748;2.222;2023-04-24T01:28:14;9.02;;;2.92;;
29344;SDS011;16339;48.748;2.222;2023-04-24T01:30:43;13.68;;;2.95;;
29344;SDS011;16339;48.748;2.222;2023-04-24T01:33:12;13.85;;;3.13;;
29344;SDS011;16339;48.748;2.222;2023-04-24T01:35:41;13.82;;;2.50;;
29344;SDS011;16339;48.748;2.222;2023-04-24T01:38:10;9.93;;;2.65;;
29344;SDS011;16339;48.748;2.222;2023-04-24T01:40:42;10.77;;;2.70;;
29344;SDS011;16339;48.748;2.222;2023-04-24T01:43:11;14.85;;;3.70;;
29344;SDS011;16339;48.748;2.222;2023-04-24T01:45:40;9.27;;;2.80;;
29344;SDS011;16339;48.748;2.222;2023-04-24T01:48:09;9.27;;;3.00;;
29344;SDS011;16339;48.748;2.222;2023-04-24T01:50:39;15.90;;;3.17;;
29344;SDS011;16339;48.748;2.222;2023-04-24T01:53:07;9.27;;;2.58;;
29344;SDS011;16339;48.748;2.222;2023-04-24T01:55:36;10.02;;;3.00;;
29344;SDS011;16339;48.748;2.222;2023-04-24T01:58:08;15.25;;;3.20;;
29344;SDS011;16339;48.748;2.222;2023-04-24T02:03:05;11.85;;;3.00;;
29344;SDS011;16339;48.748;2.222;2023-04-24T02:05:34;12.63;;;2.90;;
29344;SDS011;16339;48.748;2.222;2023-04-24T02:08:02;6.75;;;2.47;;
29344;SDS011;16339;48.748;2.222;2023-04-24T02:10:31;8.63;;;2.65;;
29344;SDS011;16339;48.748;2.222;2023-04-24T02:13:00;6.97;;;2.42;;
29344;SDS011;16339;48.748;2.222;2023-04-24T02:15:32;12.48;;;2.97;;
29344;SDS011;16339;48.748;2.222;2023-04-24T02:18:01;10.30;;;2.50;;
29344;SDS011;16339;48.748;2.222;2023-04-24T02:20:30;6.72;;;2.85;;
29344;SDS011;16339;48.748;2.222;2023-04-24T02:22:59;8.25;;;2.45;;
29344;SDS011;16339;48.748;2.222;2023-04-24T02:25:27;13.05;;;3.00;;
29344;SDS011;16339;48.748;2.222;2023-04-24T02:27:56;11.65;;;2.65;;
29344;SDS011;16339;48.748;2.222;2023-04-24T02:30:25;9.60;;;2.63;;
29344;SDS011;16339;48.748;2.222;2023-04-24T02:32:56;7.63;;;2.80;;
29344;SDS011;16339;48.748;2.222;2023-04-24T02:35:25;9.00;;;2.65;;
29344;SDS011;16339;48.748;2.222;2023-04-24T02:37:53;13.50;;;3.10;;
29344;SDS011;16339;48.748;2.222;2023-04-24T02:40:22;10.73;;;2.33;;
29344;SDS011;16339;48.748;2.222;2023-04-24T02:42:51;6.57;;;2.60;;
29344;SDS011;16339;48.748;2.222;2023-04-24T02:45:19;15.45;;;3.10;;
29344;SDS011;16339;48.748;2.222;2023-04-24T02:47:48;9.85;;;2.80;;
29344;SDS011;16339;48.748;2.222;2023-04-24T02:50:19;7.28;;;2.67;;
29344;SDS011;16339;48.748;2.222;2023-04-24T02:52:48;11.70;;;2.42;;
29344;SDS011;16339;48.748;2.222;2023-04-24T02:55:17;17.38;;;2.80;;
29344;SDS011;16339;48.748;2.222;2023-04-24T02:57:46;17.00;;;3.08;;
29344;SDS011;16339;48.748;2.222;2023-04-24T03:00:15;12.18;;;3.42;;
29344;SDS011;16339;48.748;2.222;2023-04-24T03:02:44;16.63;;;2.55;;
29344;SDS011;16339;48.748;2.222;2023-04-24T03:05:12;7.72;;;2.42;;
29344;SDS011;16339;48.748;2.222;2023-04-24T03:07:44;11.50;;;3.13;;
29344;SDS011;16339;48.748;2.222;2023-04-24T03:10:13;13.00;;;2.50;;
29344;SDS011;16339;48.748;2.222;2023-04-24T03:12:41;14.35;;;2.92;;
29344;SDS011;16339;48.748;2.222;2023-04-24T03:15:10;8.88;;;2.45;;
29344;SDS011;16339;48.748;2.222;2023-04-24T03:17:39;8.98;;;2.70;;
29344;SDS011;16339;48.748;2.222;2023-04-24T03:20:08;10.48;;;2.95;;
29344;SDS011;16339;48.748;2.222;2023-04-24T03:22:37;9.07;;;2.72;;
29344;SDS011;16339;48.748;2.222;2023-04-24T03:25:09;16.77;;;3.08;;
29344;SDS011;16339;48.748;2.222;2023-04-24T03:27:37;10.50;;;2.85;;
29344;SDS011;16339;48.748;2.222;2023-04-24T03:30:07;9.50;;;2.80;;
29344;SDS011;16339;48.748;2.222;2023-04-24T03:32:36;12.02;;;3.55;;
29344;SDS011;16339;48.748;2.222;2023-04-24T03:35:06;11.88;;;3.03;;
29344;SDS011;16339;48.748;2.222;2023-04-24T03:37:35;12.50;;;2.90;;
29344;SDS011;16339;48.748;2.222;2023-04-24T03:40:04;12.02;;;2.85;;
29344;SDS011;16339;48.748;2.222;2023-04-24T03:42:36;17.88;;;3.00;;
29344;SDS011;16339;48.748;2.222;2023-04-24T03:45:06;9.90;;;3.13;;
29344;SDS011;16339;48.748;2.222;2023-04-24T03:47:35;12.13;;;2.75;;
29344;SDS011;16339;48.748;2.222;2023-04-24T03:50:04;13.65;;;3.10;;
29344;SDS011;16339;48.748;2.222;2023-04-24T03:52:34;14.85;;;3.00;;
29344;SDS011;16339;48.748;2.222;2023-04-24T03:55:03;7.25;;;3.00;;
29344;SDS011;16339;48.748;2.222;2023-04-24T03:57:32;16.05;;;3.20;;
29344;SDS011;16339;48.748;2.222;2023-04-24T04:00:04;17.83;;;3.10;;
29344;SDS011;16339;48.748;2.222;2023-04-24T04:02:34;9.40;;;3.00;;
29344;SDS011;16339;48.748;2.222;2023-04-24T04:05:02;14.13;;;3.00;;
29344;SDS011;16339;48.748;2.222;2023-04-24T04:07:31;10.68;;;3.40;;
29344;SDS011;16339;48.748;2.222;2023-04-24T04:10:00;12.30;;;3.33;;
29344;SDS011;16339;48.748;2.222;2023-04-24T04:12:28;12.30;;;3.25;;
29344;SDS011;16339;48.748;2.222;2023-04-24T04:14:57;11.43;;;3.63;;
29344;SDS011;16339;48.748;2.222;2023-04-24T04:17:29;14.98;;;3.60;;
29344;SDS011;16339;48.748;2.222;2023-04-24T04:19:57;8.90;;;3.60;;
29344;SDS011;16339;48.748;2.222;2023-04-24T04:22:26;8.70;;;3.22;;
29344;SDS011;16339;48.748;2.222;2023-04-24T04:24:55;10.40;;;2.90;;
29344;SDS011;16339;48.748;2.222;2023-04-24T04:27:24;12.07;;;3.58;;
29344;SDS011;16339;48.748;2.222;2023-04-24T04:29:53;13.80;;;3.10;;
29344;SDS011;16339;48.748;2.222;2023-04-24T04:32:22;13.07;;;3.50;;
29344;SDS011;16339;48.748;2.222;2023-04-24T04:34:53;12.90;;;3.88;;
29344;SDS011;16339;48.748;2.222;2023-04-24T04:37:22;10.40;;;2.95;;
29344;SDS011;16339;48.748;2.222;2023-04-24T04:39:51;9.13;;;3.28;;
29344;SDS011;16339;48.748;2.222;2023-04-24T04:42:20;12.52;;;3.88;;
29344;SDS011;16339;48.748;2.222;2023-04-24T04:44:49;10.75;;;3.42;;
29344;SDS011;16339;48.748;2.222;2023-04-24T04:47:18;11.60;;;3.58;;
29344;SDS011;16339;48.748;2.222;2023-04-24T04:52:21;15.75;;;3.70;;
29344;SDS011;16339;48.748;2.222;2023-04-24T04:54:51;11.93;;;4.38;;
29344;SDS011;16339;48.748;2.222;2023-04-24T04:57:20;13.70;;;4.22;;
29344;SDS011;16339;48.748;2.222;2023-04-24T04:59:49;6.85;;;3.47;;
29344;SDS011;16339;48.748;2.222;2023-04-24T05:02:17;17.33;;;3.67;;
29344;SDS011;16339;48.748;2.222;2023-04-24T05:04:46;13.25;;;3.88;;
29344;SDS011;16339;48.748;2.222;2023-04-24T05:07:15;10.05;;;3.75;;
29344;SDS011;16339;48.748;2.222;2023-04-24T05:09:46;12.55;;;4.25;;
29344;SDS011;16339;48.748;2.222;2023-04-24T05:12:16;10.95;;;3.95;;
29344;SDS011;16339;48.748;2.222;2023-04-24T05:14:45;17.95;;;3.80;;
29344;SDS011;16339;48.748;2.222;2023-04-24T05:17:13;16.70;;;4.35;;
29344;SDS011;16339;48.748;2.222;2023-04-24T05:19:42;11.27;;;4.20;;
29344;SDS011;16339;48.748;2.222;2023-04-24T05:22:11;13.95;;;4.38;;
29344;SDS011;16339;48.748;2.222;2023-04-24T05:24:40;11.40;;;4.63;;
29344;SDS011;16339;48.748;2.222;2023-04-24T05:27:11;12.77;;;4.65;;
29344;SDS011;16339;48.748;2.222;2023-04-24T05:29:40;13.38;;;4.78;;
29344;SDS011;16339;48.748;2.222;2023-04-24T05:32:08;18.63;;;5.18;;
29344;SDS011;16339;48.748;2.222;2023-04-24T05:34:37;13.77;;;4.25;;
29344;SDS011;16339;48.748;2.222;2023-04-24T05:37:06;16.30;;;4.65;;
29344;SDS011;16339;48.748;2.222;2023-04-24T05:39:35;14.60;;;4.65;;
29344;SDS011;16339;48.748;2.222;2023-04-24T05:42:04;15.35;;;4.57;;
29344;SDS011;16339;48.748;2.222;2023-04-24T05:44:36;11.10;;;5.45;;
29344;SDS011;16339;48.748;2.222;2023-04-24T05:47:04;15.73;;;4.80;;
29344;SDS011;16339;48.748;2.222;2023-04-24T05:49:33;13.80;;;5.13;;
29344;SDS011;16339;48.748;2.222;2023-04-24T05:52:01;15.70;;;5.20;;
29344;SDS011;16339;48.748;2.222;2023-04-24T05:54:33;11.20;;;5.32;;
29344;SDS011;16339;48.748;2.222;2023-04-24T05:57:02;21.55;;;5.20;;
29344;SDS011;16339;48.748;2.222;2023-04-24T05:59:32;8.75;;;4.70;;
29344;SDS011;16339;48.748;2.222;2023-04-24T06:02:04;11.75;;;4.72;;
29344;SDS011;16339;48.748;2.222;2023-04-24T06:04:33;12.85;;;5.10;;
29344;SDS011;16339;48.748;2.222;2023-04-24T06:07:02;17.55;;;4.95;;
29344;SDS011;16339;48.748;2.222;2023-04-24T06:09:31;14.95;;;4.93;;
29344;SDS011;16339;48.748;2.222;2023-04-24T06:12:00;13.20;;;5.25;;
29344;SDS011;16339;48.748;2.222;2023-04-24T06:14:29;16.42;;;5.68;;
29344;SDS011;16339;48.748;2.222;2023-04-24T06:17:00;18.00;;;5.28;;
29344;SDS011;16339;48.748;2.222;2023-04-24T06:19:29;14.00;;;5.90;;
29344;SDS011;16339;48.748;2.222;2023-04-24T06:21:57;22.67;;;6.88;;
29344;SDS011;16339;48.748;2.222;2023-04-24T06:24:27;17.85;;;5.85;;
29344;SDS011;16339;48.748;2.222;2023-04-24T06:26:55;17.80;;;5.97;;
29344;SDS011;16339;48.748;2.222;2023-04-24T06:29:25;10.07;;;5.32;;
29344;SDS011;16339;48.748;2.222;2023-04-24T06:31:54;16.10;;;6.18;;
29344;SDS011;16339;48.748;2.222;2023-04-24T06:34:25;20.80;;;5.90;;
29344;SDS011;16339;48.748;2.222;2023-04-24T06:36:55;23.55;;;6.32;;
29344;SDS011;16339;48.748;2.222;2023-04-24T06:39:24;28.15;;;6.75;;
29344;SDS011;16339;48.748;2.222;2023-04-24T06:41:53;12.52;;;5.95;;
29344;SDS011;16339;48.748;2.222;2023-04-24T06:44:21;17.40;;;6.18;;
29344;SDS011;16339;48.748;2.222;2023-04-24T06:46:50;18.38;;;6.20;;
29344;SDS011;16339;48.748;2.222;2023-04-24T06:49:19;19.17;;;6.68;;
29344;SDS011;16339;48.748;2.222;2023-04-24T06:51:50;13.60;;;6.75;;
29344;SDS011;16339;48.748;2.222;2023-04-24T06:54:19;17.38;;;6.50;;
29344;SDS011;16339;48.748;2.222;2023-04-24T06:56:47;19.25;;;7.20;;
29344;SDS011;16339;48.748;2.222;2023-04-24T06:59:17;15.95;;;6.22;;
29344;SDS011;16339;48.748;2.222;2023-04-24T07:01:45;16.75;;;7.57;;
29344;SDS011;16339;48.748;2.222;2023-04-24T07:04:14;19.08;;;7.93;;
29344;SDS011;16339;48.748;2.222;2023-04-24T07:06:43;21.05;;;9.27;;
29344;SDS011;16339;48.748;2.222;2023-04-24T07:09:15;35.25;;;8.02;;
29344;SDS011;16339;48.748;2.222;2023-04-24T07:11:44;22.40;;;6.93;;
29344;SDS011;16339;48.748;2.222;2023-04-24T07:14:13;23.75;;;8.52;;
29344;SDS011;16339;48.748;2.222;2023-04-24T07:16:42;17.63;;;7.63;;
29344;SDS011;16339;48.748;2.222;2023-04-24T07:19:11;32.90;;;9.18;;
29344;SDS011;16339;48.748;2.222;2023-04-24T07:21:40;436.70;;;21.23;;
29344;SDS011;16339;48.748;2.222;2023-04-24T07:24:08;22.60;;;7.75;;
29344;SDS011;16339;48.748;2.222;2023-04-24T07:26:40;15.13;;;7.68;;
29344;SDS011;16339;48.748;2.222;2023-04-24T07:29:09;19.58;;;7.57;;
29344;SDS011;16339;48.748;2.222;2023-04-24T07:31:38;23.17;;;8.10;;
29344;SDS011;16339;48.748;2.222;2023-04-24T07:34:06;20.10;;;8.68;;
29344;SDS011;16339;48.748;2.222;2023-04-24T07:36:35;18.70;;;8.35;;
29344;SDS011;16339;48.748;2.222;2023-04-24T07:39:04;21.52;;;8.27;;
29344;SDS011;16339;48.748;2.222;2023-04-24T07:41:33;24.13;;;8.93;;
29344;SDS011;16339;48.748;2.222;2023-04-24T07:44:04;23.20;;;9.30;;
29344;SDS011;16339;48.748;2.222;2023-04-24T07:46:33;20.05;;;9.15;;
29344;SDS011;16339;48.748;2.222;2023-04-24T07:49:02;21.88;;;8.75;;
29344;SDS011;16339;48.748;2.222;2023-04-24T07:51:31;21.92;;;8.57;;
29344;SDS011;16339;48.748;2.222;2023-04-24T07:54:03;25.38;;;8.93;;
29344;SDS011;16339;48.748;2.222;2023-04-24T07:56:32;21.55;;;9.32;;
29344;SDS011;16339;48.748;2.222;2023-04-24T07:59:06;18.30;;;9.70;;
29344;SDS011;16339;48.748;2.222;2023-04-24T08:01:35;28.77;;;8.75;;
29344;SDS011;16339;48.748;2.222;2023-04-24T08:04:03;19.33;;;9.05;;
29344;SDS011;16339;48.748;2.222;2023-04-24T08:06:32;16.48;;;9.43;;
29344;SDS011;16339;48.748;2.222;2023-04-24T08:09:01;25.80;;;10.10;;
29344;SDS011;16339;48.748;2.222;2023-04-24T08:11:30;27.80;;;9.95;;
29344;SDS011;16339;48.748;2.222;2023-04-24T08:13:59;24.77;;;10.13;;
29344;SDS011;16339;48.748;2.222;2023-04-24T08:16:30;20.80;;;9.57;;
29344;SDS011;16339;48.748;2.222;2023-04-24T08:19:00;21.17;;;10.00;;
29344;SDS011;16339;48.748;2.222;2023-04-24T08:21:29;26.70;;;10.07;;
29344;SDS011;16339;48.748;2.222;2023-04-24T08:23:58;23.25;;;9.85;;
29344;SDS011;16339;48.748;2.222;2023-04-24T08:26:30;16.10;;;9.02;;
29344;SDS011;16339;48.748;2.222;2023-04-24T08:28:59;20.80;;;9.18;;
29344;SDS011;16339;48.748;2.222;2023-04-24T08:31:30;19.58;;;9.70;;
29344;SDS011;16339;48.748;2.222;2023-04-24T08:34:01;24.40;;;9.57;;
29344;SDS011;16339;48.748;2.222;2023-04-24T08:36:31;16.08;;;8.88;;
29344;SDS011;16339;48.748;2.222;2023-04-24T08:39:00;23.52;;;10.52;;
29344;SDS011;16339;48.748;2.222;2023-04-24T08:41:28;19.35;;;9.80;;
29344;SDS011;16339;48.748;2.222;2023-04-24T08:43:58;24.80;;;9.43;;
29344;SDS011;16339;48.748;2.222;2023-04-24T08:46:27;16.75;;;8.70;;
29344;SDS011;16339;48.748;2.222;2023-04-24T08:48:59;21.60;;;9.88;;
29344;SDS011;16339;48.748;2.222;2023-04-24T08:51:28;19.75;;;9.95;;
29344;SDS011;16339;48.748;2.222;2023-04-24T08:53:58;15.25;;;9.05;;
29344;SDS011;16339;48.748;2.222;2023-04-24T08:56:31;25.95;;;10.30;;
29344;SDS011;16339;48.748;2.222;2023-04-24T08:59:03;20.95;;;9.38;;
29344;SDS011;16339;48.748;2.222;2023-04-24T09:01:35;20.17;;;9.40;;
29344;SDS011;16339;48.748;2.222;2023-04-24T09:04:07;19.35;;;9.27;;
29344;SDS011;16339;48.748;2.222;2023-04-24T09:06:37;20.17;;;9.43;;
29344;SDS011;16339;48.748;2.222;2023-04-24T09:09:07;25.33;;;9.35;;
29344;SDS011;16339;48.748;2.222;2023-04-24T09:11:38;24.30;;;9.80;;
29344;SDS011;16339;48.748;2.222;2023-04-24T09:14:08;17.35;;;8.85;;
29344;SDS011;16339;48.748;2.222;2023-04-24T09:16:41;25.70;;;9.85;;
29344;SDS011;16339;48.748;2.222;2023-04-24T09:19:10;17.27;;;8.95;;
29344;SDS011;16339;48.748;2.222;2023-04-24T09:21:38;26.23;;;9.57;;
29344;SDS011;16339;48.748;2.222;2023-04-24T09:24:15;17.10;;;9.73;;
29344;SDS011;16339;48.748;2.222;2023-04-24T09:26:47;24.85;;;8.90;;
29344;SDS011;16339;48.748;2.222;2023-04-24T09:29:17;16.75;;;8.52;;
29344;SDS011;16339;48.748;2.222;2023-04-24T09:31:49;23.15;;;9.32;;
29344;SDS011;16339;48.748;2.222;2023-04-24T09:36:49;18.00;;;9.27;;
29344;SDS011;16339;48.748;2.222;2023-04-24T09:39:18;22.23;;;9.07;;
29344;SDS011;16339;48.748;2.222;2023-04-24T09:41:48;18.30;;;9.20;;
29344;SDS011;16339;48.748;2.222;2023-04-24T09:44:18;17.67;;;9.32;;
29344;SDS011;16339;48.748;2.222;2023-04-24T09:46:51;19.25;;;9.02;;
29344;SDS011;16339;48.748;2.222;2023-04-24T09:49:22;17.73;;;8.13;;
29344;SDS011;16339;48.748;2.222;2023-04-24T09:51:53;14.48;;;8.60;;
29344;SDS011;16339;48.748;2.222;2023-04-24T09:54:31;20.10;;;9.15;;
29344;SDS011;16339;48.748;2.222;2023-04-24T09:57:01;18.53;;;9.00;;
29344;SDS011;16339;48.748;2.222;2023-04-24T09:59:30;21.67;;;8.98;;
29344;SDS011;16339;48.748;2.222;2023-04-24T10:02:02;17.00;;;9.07;;
29344;SDS011;16339;48.748;2.222;2023-04-24T10:04:53;20.77;;;9.60;;
29344;SDS011;16339;48.748;2.222;2023-04-24T10:07:25;21.13;;;8.85;;
29344;SDS011;16339;48.748;2.222;2023-04-24T10:09:54;20.02;;;8.43;;
29344;SDS011;16339;48.748;2.222;2023-04-24T10:12:26;15.90;;;8.48;;
29344;SDS011;16339;48.748;2.222;2023-04-24T10:14:55;20.40;;;8.40;;
29344;SDS011;16339;48.748;2.222;2023-04-24T10:17:29;14.55;;;7.60;;
29344;SDS011;16339;48.748;2.222;2023-04-24T10:22:28;13.00;;;6.97;;
29344;SDS011;16339;48.748;2.222;2023-04-24T10:24:57;15.00;;;7.68;;
29344;SDS011;16339;48.748;2.222;2023-04-24T10:27:27;14.18;;;7.10;;
29344;SDS011;16339;48.748;2.222;2023-04-24T10:29:57;14.18;;;6.72;;
29344;SDS011;16339;48.748;2.222;2023-04-24T10:32:30;13.30;;;7.40;;
29344;SDS011;16339;48.748;2.222;2023-04-24T10:34:59;11.10;;;6.80;;
29344;SDS011;16339;48.748;2.222;2023-04-24T10:37:27;14.85;;;7.38;;
29344;SDS011;16339;48.748;2.222;2023-04-24T10:40:03;12.48;;;6.30;;
29344;SDS011;16339;48.748;2.222;2023-04-24T10:42:33;13.93;;;6.53;;
29344;SDS011;16339;48.748;2.222;2023-04-24T10:45:04;16.55;;;7.38;;
29344;SDS011;16339;48.748;2.222;2023-04-24T10:47:41;13.10;;;7.63;;
29344;SDS011;16339;48.748;2.222;2023-04-24T10:50:10;16.15;;;7.75;;
29344;SDS011;16339;48.748;2.222;2023-04-24T10:52:45;15.43;;;7.15;;
29344;SDS011;16339;48.748;2.222;2023-04-24T10:55:16;15.88;;;6.95;;
29344;SDS011;16339;48.748;2.222;2023-04-24T10:58:05;11.68;;;6.22;;
29344;SDS011;16339;48.748;2.222;2023-04-24T11:00:34;9.55;;;5.93;;
29344;SDS011;16339;48.748;2.222;2023-04-24T11:03:12;15.10;;;7.00;;
29344;SDS011;16339;48.748;2.222;2023-04-24T11:06:00;13.05;;;6.85;;
29344;SDS011;16339;48.748;2.222;2023-04-24T11:08:31;15.38;;;7.80;;
29344;SDS011;16339;48.748;2.222;2023-04-24T11:11:07;10.88;;;6.53;;
29344;SDS011;16339;48.748;2.222;2023-04-24T11:16:42;14.98;;;6.80;;
29344;SDS011;16339;48.748;2.222;2023-04-24T11:19:21;11.48;;;6.50;;
29344;SDS011;16339;48.748;2.222;2023-04-24T11:21:55;16.00;;;7.63;;
29344;SDS011;16339;48.748;2.222;2023-04-24T11:24:27;10.38;;;6.18;;
29344;SDS011;16339;48.748;2.222;2023-04-24T11:27:00;17.20;;;6.35;;
29344;SDS011;16339;48.748;2.222;2023-04-24T11:29:44;10.25;;;6.20;;
29344;SDS011;16339;48.748;2.222;2023-04-24T11:32:16;8.80;;;5.57;;
29344;SDS011;16339;48.748;2.222;2023-04-24T11:34:54;10.52;;;5.05;;
29344;SDS011;16339;48.748;2.222;2023-04-24T11:37:26;8.10;;;4.78;;
29344;SDS011;16339;48.748;2.222;2023-04-24T11:39:56;13.05;;;4.82;;
29344;SDS011;16339;48.748;2.222;2023-04-24T11:42:26;11.98;;;5.13;;
29344;SDS011;16339;48.748;2.222;2023-04-24T11:44:55;11.68;;;5.05;;
29344;SDS011;16339;48.748;2.222;2023-04-24T11:47:28;8.35;;;4.72;;
29344;SDS011;16339;48.748;2.222;2023-04-24T11:50:01;8.63;;;4.32;;
29344;SDS011;16339;48.748;2.222;2023-04-24T11:52:31;9.05;;;4.43;;
29344;SDS011;16339;48.748;2.222;2023-04-24T11:55:01;11.80;;;4.60;;
29344;SDS011;16339;48.748;2.222;2023-04-24T11:57:30;10.75;;;4.70;;
29344;SDS011;16339;48.748;2.222;2023-04-24T12:00:01;9.25;;;4.20;;
29344;SDS011;16339;48.748;2.222;2023-04-24T12:02:33;10.73;;;4.05;;
29344;SDS011;16339;48.748;2.222;2023-04-24T12:05:04;10.27;;;3.85;;
29344;SDS011;16339;48.748;2.222;2023-04-24T12:07:39;9.43;;;3.95;;
29344;SDS011;16339;48.748;2.222;2023-04-24T12:10:10;8.80;;;3.65;;
29344;SDS011;16339;48.748;2.222;2023-04-24T12:12:41;7.65;;;3.92;;
29344;SDS011;16339;48.748;2.222;2023-04-24T12:15:15;7.10;;;3.63;;
29344;SDS011;16339;48.748;2.222;2023-04-24T12:17:45;8.23;;;3.35;;
29344;SDS011;16339;48.748;2.222;2023-04-24T12:20:16;8.30;;;3.42;;
29344;SDS011;16339;48.748;2.222;2023-04-24T12:25:15;10.10;;;4.05;;
29344;SDS011;16339;48.748;2.222;2023-04-24T12:27:44;9.30;;;4.10;;
29344;SDS011;16339;48.748;2.222;2023-04-24T12:30:15;9.18;;;3.80;;
29344;SDS011;16339;48.748;2.222;2023-04-24T12:32:45;16.13;;;3.60;;
29344;SDS011;16339;48.748;2.222;2023-04-24T12:35:21;6.60;;;3.97;;
29344;SDS011;16339;48.748;2.222;2023-04-24T12:37:53;6.57;;;3.75;;
29344;SDS011;16339;48.748;2.222;2023-04-24T12:40:22;6.95;;;3.60;;
29344;SDS011;16339;48.748;2.222;2023-04-24T12:42:55;10.77;;;3.50;;
29344;SDS011;16339;48.748;2.222;2023-04-24T12:45:24;6.75;;;3.42;;
29344;SDS011;16339;48.748;2.222;2023-04-24T12:47:53;5.93;;;3.08;;
29344;SDS011;16339;48.748;2.222;2023-04-24T12:50:32;4.78;;;3.05;;
29344;SDS011;16339;48.748;2.222;2023-04-24T12:53:07;5.43;;;2.83;;
29344;SDS011;16339;48.748;2.222;2023-04-24T12:55:38;6.50;;;3.10;;
29344;SDS011;16339;48.748;2.222;2023-04-24T12:58:07;7.55;;;3.22;;
29344;SDS011;16339;48.748;2.222;2023-04-24T13:00:36;12.07;;;2.45;;
29344;SDS011;16339;48.748;2.222;2023-04-24T13:03:08;6.22;;;2.53;;
29344;SDS011;16339;48.748;2.222;2023-04-24T13:05:39;7.68;;;2.72;;
29344;SDS011;16339;48.748;2.222;2023-04-24T13:08:14;5.57;;;2.67;;
29344;SDS011;16339;48.748;2.222;2023-04-24T13:10:43;7.90;;;2.78;;
29344;SDS011;16339;48.748;2.222;2023-04-24T13:13:12;8.43;;;2.78;;
29344;SDS011;16339;48.748;2.222;2023-04-24T13:15:43;5.80;;;2.55;;
29344;SDS011;16339;48.748;2.222;2023-04-24T13:20:45;10.32;;;3.00;;
29344;SDS011;16339;48.748;2.222;2023-04-24T13:23:14;5.30;;;2.30;;
29344;SDS011;16339;48.748;2.222;2023-04-24T13:25:42;5.07;;;2.40;;
29344;SDS011;16339;48.748;2.222;2023-04-24T13:28:12;7.85;;;2.38;;
29344;SDS011;16339;48.748;2.222;2023-04-24T13:30:41;6.78;;;2.60;;
29344;SDS011;16339;48.748;2.222;2023-04-24T13:33:09;8.27;;;2.95;;
29344;SDS011;16339;48.748;2.222;2023-04-24T13:35:38;5.25;;;2.72;;
29344;SDS011;16339;48.748;2.222;2023-04-24T13:38:11;6.60;;;2.65;;
29344;SDS011;16339;48.748;2.222;2023-04-24T13:40:40;6.30;;;2.45;;
29344;SDS011;16339;48.748;2.222;2023-04-24T13:43:09;4.55;;;2.30;;
29344;SDS011;16339;48.748;2.222;2023-04-24T13:45:37;3.80;;;1.95;;
29344;SDS011;16339;48.748;2.222;2023-04-24T13:48:06;2.85;;;2.10;;
29344;SDS011;16339;48.748;2.222;2023-04-24T13:50:41;4.18;;;1.90;;
29344;SDS011;16339;48.748;2.222;2023-04-24T13:53:19;3.17;;;1.73;;
29344;SDS011;16339;48.748;2.222;2023-04-24T13:55:50;2.88;;;1.63;;
29344;SDS011;16339;48.748;2.222;2023-04-24T13:58:20;10.05;;;1.95;;
29344;SDS011;16339;48.748;2.222;2023-04-24T14:00:58;2.45;;;1.67;;
29344;SDS011;16339;48.748;2.222;2023-04-24T14:03:27;4.03;;;1.50;;
29344;SDS011;16339;48.748;2.222;2023-04-24T14:05:56;4.60;;;1.67;;
29344;SDS011;16339;48.748;2.222;2023-04-24T14:08:29;3.08;;;1.60;;
29344;SDS011;16339;48.748;2.222;2023-04-24T14:10:58;7.40;;;1.77;;
29344;SDS011;16339;48.748;2.222;2023-04-24T14:13:27;2.85;;;1.40;;
29344;SDS011;16339;48.748;2.222;2023-04-24T14:15:56;6.28;;;1.63;;
29344;SDS011;16339;48.748;2.222;2023-04-24T14:18:26;5.18;;;1.98;;
29344;SDS011;16339;48.748;2.222;2023-04-24T14:20:59;2.95;;;1.83;;
29344;SDS011;16339;48.748;2.222;2023-04-24T14:23:33;7.60;;;1.90;;
29344;SDS011;16339;48.748;2.222;2023-04-24T14:26:02;3.67;;;1.90;;
29344;SDS011;16339;48.748;2.222;2023-04-24T14:28:30;3.53;;;1.90;;
29344;SDS011;16339;48.748;2.222;2023-04-24T14:31:00;3.40;;;2.30;;
29344;SDS011;16339;48.748;2.222;2023-04-24T14:33:28;4.30;;;2.55;;
29344;SDS011;16339;48.748;2.222;2023-04-24T14:35:57;4.07;;;2.42;;
29344;SDS011;16339;48.748;2.222;2023-04-24T14:38:27;2.67;;;1.95;;
29344;SDS011;16339;48.748;2.222;2023-04-24T14:40:59;10.63;;;2.58;;
29344;SDS011;16339;48.748;2.222;2023-04-24T14:43:34;4.63;;;2.40;;
29344;SDS011;16339;48.748;2.222;2023-04-24T14:46:03;6.45;;;2.92;;
29344;SDS011;16339;48.748;2.222;2023-04-24T14:48:31;8.93;;;2.75;;
29344;SDS011;16339;48.748;2.222;2023-04-24T14:51:00;3.33;;;2.33;;
29344;SDS011;16339;48.748;2.222;2023-04-24T14:53:29;6.50;;;2.13;;
29344;SDS011;16339;48.748;2.222;2023-04-24T14:56:00;5.50;;;2.28;;
29344;SDS011;16339;48.748;2.222;2023-04-24T14:58:29;5.70;;;2.45;;
29344;SDS011;16339;48.748;2.222;2023-04-24T15:00:59;6.65;;;2.50;;
29344;SDS011;16339;48.748;2.222;2023-04-24T15:03:28;8.43;;;2.65;;
29344;SDS011;16339;48.748;2.222;2023-04-24T15:06:00;5.20;;;2.97;;
29344;SDS011;16339;48.748;2.222;2023-04-24T15:08:28;8.45;;;2.67;;
29344;SDS011;16339;48.748;2.222;2023-04-24T15:11:00;8.75;;;2.75;;
29344;SDS011;16339;48.748;2.222;2023-04-24T15:13:29;6.20;;;2.35;;